Terminal Aerodrome Forecast
Issued by NWS Tampa Bay Area, FL

Home | Current Version | Previous Version | Text Only | Print | Product List | Glossary On
Versions: 1 2 3 4 5 6 7 8 9 10 11 12 13 14 15
000
FTUS42 KTBW 212300
TAFFMY
TAF
KFMY 212329Z 2200/2224 VRB03KT P6SM BKN250
     FM221200 VRB03KT P6SM VCSH SCT025 BKN100
     FM221500 20004KT P6SM VCSH SCT025 BKN050
     FM221800 22008KT P6SM VCTS BKN040CB=

USA.gov is the U.S. government's official web portal to all federal, state and local government web resources and services.